sensor_id;sensor_type;location;lat;lon;timestamp;P1;durP1;ratioP1;P2;durP2;ratioP2
54247;SDS011;40161;39.768;2.722;2023-07-29T00:01:07;4.28;;;2.13;;
54247;SDS011;40161;39.768;2.722;2023-07-29T00:03:33;4.95;;;1.67;;
54247;SDS011;40161;39.768;2.722;2023-07-29T00:05:58;3.47;;;1.50;;
54247;SDS011;40161;39.768;2.722;2023-07-29T00:08:24;4.90;;;1.50;;
54247;SDS011;40161;39.768;2.722;2023-07-29T00:10:49;4.57;;;1.55;;
54247;SDS011;40161;39.768;2.722;2023-07-29T00:13:15;3.65;;;1.60;;
54247;SDS011;40161;39.768;2.722;2023-07-29T00:15:40;4.57;;;1.38;;
54247;SDS011;40161;39.768;2.722;2023-07-29T00:18:06;6.65;;;1.80;;
54247;SDS011;40161;39.768;2.722;2023-07-29T00:20:31;3.58;;;1.83;;
54247;SDS011;40161;39.768;2.722;2023-07-29T00:22:57;3.60;;;1.50;;
54247;SDS011;40161;39.768;2.722;2023-07-29T00:25:24;4.28;;;1.60;;
54247;SDS011;40161;39.768;2.722;2023-07-29T00:27:49;4.28;;;1.35;;
54247;SDS011;40161;39.768;2.722;2023-07-29T00:30:15;4.72;;;1.40;;
54247;SDS011;40161;39.768;2.722;2023-07-29T00:32:40;4.72;;;1.60;;
54247;SDS011;40161;39.768;2.722;2023-07-29T00:35:06;4.13;;;1.77;;
54247;SDS011;40161;39.768;2.722;2023-07-29T00:37:32;4.45;;;1.85;;
54247;SDS011;40161;39.768;2.722;2023-07-29T00:39:57;3.78;;;1.65;;
54247;SDS011;40161;39.768;2.722;2023-07-29T00:42:23;4.50;;;1.65;;
54247;SDS011;40161;39.768;2.722;2023-07-29T00:44:49;4.18;;;1.75;;
54247;SDS011;40161;39.768;2.722;2023-07-29T00:47:15;3.63;;;1.42;;
54247;SDS011;40161;39.768;2.722;2023-07-29T00:49:41;3.08;;;1.45;;
54247;SDS011;40161;39.768;2.722;2023-07-29T00:52:09;2.85;;;1.20;;
54247;SDS011;40161;39.768;2.722;2023-07-29T00:54:37;4.50;;;1.30;;
54247;SDS011;40161;39.768;2.722;2023-07-29T00:57:06;4.40;;;1.48;;
54247;SDS011;40161;39.768;2.722;2023-07-29T00:59:34;3.38;;;1.42;;
54247;SDS011;40161;39.768;2.722;2023-07-29T01:02:01;3.83;;;1.85;;
54247;SDS011;40161;39.768;2.722;2023-07-29T01:04:27;3.80;;;1.38;;
54247;SDS011;40161;39.768;2.722;2023-07-29T01:09:33;3.17;;;1.40;;
54247;SDS011;40161;39.768;2.722;2023-07-29T01:12:51;5.03;;;1.38;;
54247;SDS011;40161;39.768;2.722;2023-07-29T01:15:22;3.55;;;1.50;;
54247;SDS011;40161;39.768;2.722;2023-07-29T01:18:04;3.90;;;1.33;;
54247;SDS011;40161;39.768;2.722;2023-07-29T01:20:34;2.75;;;1.35;;
54247;SDS011;40161;39.768;2.722;2023-07-29T01:23:03;4.05;;;1.45;;
54247;SDS011;40161;39.768;2.722;2023-07-29T01:25:29;3.38;;;1.48;;
54247;SDS011;40161;39.768;2.722;2023-07-29T01:27:54;5.15;;;1.73;;
54247;SDS011;40161;39.768;2.722;2023-07-29T01:30:21;3.42;;;1.50;;
54247;SDS011;40161;39.768;2.722;2023-07-29T01:32:56;4.15;;;1.40;;
54247;SDS011;40161;39.768;2.722;2023-07-29T01:35:47;3.45;;;1.27;;
54247;SDS011;40161;39.768;2.722;2023-07-29T01:38:20;2.75;;;1.25;;
54247;SDS011;40161;39.768;2.722;2023-07-29T01:40:50;3.00;;;1.50;;
54247;SDS011;40161;39.768;2.722;2023-07-29T01:43:16;3.22;;;1.40;;
54247;SDS011;40161;39.768;2.722;2023-07-29T01:45:44;4.60;;;1.65;;
54247;SDS011;40161;39.768;2.722;2023-07-29T01:48:09;4.32;;;1.65;;
54247;SDS011;40161;39.768;2.722;2023-07-29T01:50:35;2.80;;;1.55;;
54247;SDS011;40161;39.768;2.722;2023-07-29T01:53:00;3.90;;;1.50;;
54247;SDS011;40161;39.768;2.722;2023-07-29T01:55:26;3.55;;;1.23;;
54247;SDS011;40161;39.768;2.722;2023-07-29T01:57:52;5.65;;;1.90;;
54247;SDS011;40161;39.768;2.722;2023-07-29T02:00:18;3.65;;;1.48;;
54247;SDS011;40161;39.768;2.722;2023-07-29T02:02:44;3.70;;;1.50;;
54247;SDS011;40161;39.768;2.722;2023-07-29T02:05:10;3.13;;;1.52;;
54247;SDS011;40161;39.768;2.722;2023-07-29T02:07:36;4.70;;;1.85;;
54247;SDS011;40161;39.768;2.722;2023-07-29T02:10:03;4.13;;;1.67;;
54247;SDS011;40161;39.768;2.722;2023-07-29T02:12:29;4.18;;;1.65;;
54247;SDS011;40161;39.768;2.722;2023-07-29T02:14:54;3.70;;;1.65;;
54247;SDS011;40161;39.768;2.722;2023-07-29T02:17:20;4.85;;;1.58;;
54247;SDS011;40161;39.768;2.722;2023-07-29T02:19:46;3.95;;;1.60;;
54247;SDS011;40161;39.768;2.722;2023-07-29T02:22:16;5.07;;;1.70;;
54247;SDS011;40161;39.768;2.722;2023-07-29T02:24:42;4.10;;;1.58;;
54247;SDS011;40161;39.768;2.722;2023-07-29T02:27:08;2.90;;;1.27;;
54247;SDS011;40161;39.768;2.722;2023-07-29T02:29:33;3.08;;;1.45;;
54247;SDS011;40161;39.768;2.722;2023-07-29T02:32:02;2.42;;;1.23;;
54247;SDS011;40161;39.768;2.722;2023-07-29T02:34:28;4.22;;;1.50;;
54247;SDS011;40161;39.768;2.722;2023-07-29T02:36:54;4.18;;;1.40;;
54247;SDS011;40161;39.768;2.722;2023-07-29T02:39:19;3.30;;;1.45;;
54247;SDS011;40161;39.768;2.722;2023-07-29T02:41:45;2.65;;;1.20;;
54247;SDS011;40161;39.768;2.722;2023-07-29T02:44:11;3.25;;;1.50;;
54247;SDS011;40161;39.768;2.722;2023-07-29T02:46:36;4.35;;;1.35;;
54247;SDS011;40161;39.768;2.722;2023-07-29T02:49:02;2.47;;;1.42;;
54247;SDS011;40161;39.768;2.722;2023-07-29T02:51:29;3.08;;;1.40;;
54247;SDS011;40161;39.768;2.722;2023-07-29T02:53:55;2.97;;;1.30;;
54247;SDS011;40161;39.768;2.722;2023-07-29T02:56:20;4.28;;;1.63;;
54247;SDS011;40161;39.768;2.722;2023-07-29T02:58:46;3.60;;;1.45;;
54247;SDS011;40161;39.768;2.722;2023-07-29T03:01:12;4.07;;;1.40;;
54247;SDS011;40161;39.768;2.722;2023-07-29T03:03:37;7.28;;;1.92;;
54247;SDS011;40161;39.768;2.722;2023-07-29T03:06:04;5.82;;;1.60;;
54247;SDS011;40161;39.768;2.722;2023-07-29T03:08:33;6.65;;;1.77;;
54247;SDS011;40161;39.768;2.722;2023-07-29T03:11:04;4.13;;;1.60;;
54247;SDS011;40161;39.768;2.722;2023-07-29T03:13:31;4.18;;;1.90;;
54247;SDS011;40161;39.768;2.722;2023-07-29T03:18:41;3.33;;;1.50;;
54247;SDS011;40161;39.768;2.722;2023-07-29T03:21:07;4.78;;;2.22;;
54247;SDS011;40161;39.768;2.722;2023-07-29T03:23:34;4.65;;;1.70;;
54247;SDS011;40161;39.768;2.722;2023-07-29T03:26:01;2.60;;;1.25;;
54247;SDS011;40161;39.768;2.722;2023-07-29T03:28:30;3.28;;;1.63;;
54247;SDS011;40161;39.768;2.722;2023-07-29T03:30:57;3.47;;;1.40;;
54247;SDS011;40161;39.768;2.722;2023-07-29T03:33:24;4.35;;;1.63;;
54247;SDS011;40161;39.768;2.722;2023-07-29T03:35:50;4.32;;;1.40;;
54247;SDS011;40161;39.768;2.722;2023-07-29T03:38:16;4.85;;;2.00;;
54247;SDS011;40161;39.768;2.722;2023-07-29T03:40:42;3.95;;;1.35;;
54247;SDS011;40161;39.768;2.722;2023-07-29T03:43:09;3.28;;;1.42;;
54247;SDS011;40161;39.768;2.722;2023-07-29T03:45:35;4.18;;;1.55;;
54247;SDS011;40161;39.768;2.722;2023-07-29T03:48:02;3.65;;;1.90;;
54247;SDS011;40161;39.768;2.722;2023-07-29T03:50:28;3.92;;;1.80;;
54247;SDS011;40161;39.768;2.722;2023-07-29T03:52:54;3.42;;;1.58;;
54247;SDS011;40161;39.768;2.722;2023-07-29T03:55:20;4.25;;;1.38;;
54247;SDS011;40161;39.768;2.722;2023-07-29T03:57:46;3.10;;;1.35;;
54247;SDS011;40161;39.768;2.722;2023-07-29T04:00:11;4.50;;;1.65;;
54247;SDS011;40161;39.768;2.722;2023-07-29T04:02:37;3.00;;;1.33;;
54247;SDS011;40161;39.768;2.722;2023-07-29T04:05:04;4.65;;;1.70;;
54247;SDS011;40161;39.768;2.722;2023-07-29T04:07:31;4.57;;;1.65;;
54247;SDS011;40161;39.768;2.722;2023-07-29T04:09:57;4.72;;;1.80;;
54247;SDS011;40161;39.768;2.722;2023-07-29T04:12:24;3.70;;;1.70;;
54247;SDS011;40161;39.768;2.722;2023-07-29T04:14:49;4.63;;;1.70;;
54247;SDS011;40161;39.768;2.722;2023-07-29T04:17:15;3.50;;;1.38;;
54247;SDS011;40161;39.768;2.722;2023-07-29T04:19:40;5.10;;;1.60;;
54247;SDS011;40161;39.768;2.722;2023-07-29T04:22:06;2.80;;;1.30;;
54247;SDS011;40161;39.768;2.722;2023-07-29T04:24:32;5.78;;;1.45;;
54247;SDS011;40161;39.768;2.722;2023-07-29T04:26:57;3.63;;;1.52;;
54247;SDS011;40161;39.768;2.722;2023-07-29T04:29:23;6.03;;;1.60;;
54247;SDS011;40161;39.768;2.722;2023-07-29T04:31:49;3.42;;;1.50;;
54247;SDS011;40161;39.768;2.722;2023-07-29T04:34:15;3.20;;;1.33;;
54247;SDS011;40161;39.768;2.722;2023-07-29T04:36:41;3.50;;;1.17;;
54247;SDS011;40161;39.768;2.722;2023-07-29T04:39:06;4.80;;;1.38;;
54247;SDS011;40161;39.768;2.722;2023-07-29T04:41:32;3.42;;;1.38;;
54247;SDS011;40161;39.768;2.722;2023-07-29T04:43:58;7.65;;;1.90;;
54247;SDS011;40161;39.768;2.722;2023-07-29T04:46:23;3.83;;;1.42;;
54247;SDS011;40161;39.768;2.722;2023-07-29T04:48:49;4.10;;;1.67;;
54247;SDS011;40161;39.768;2.722;2023-07-29T04:51:14;5.65;;;1.75;;
54247;SDS011;40161;39.768;2.722;2023-07-29T04:53:40;6.63;;;1.83;;
54247;SDS011;40161;39.768;2.722;2023-07-29T04:56:05;4.18;;;1.67;;
54247;SDS011;40161;39.768;2.722;2023-07-29T04:58:31;6.15;;;1.80;;
54247;SDS011;40161;39.768;2.722;2023-07-29T05:00:59;3.42;;;1.50;;
54247;SDS011;40161;39.768;2.722;2023-07-29T05:03:25;4.00;;;1.80;;
54247;SDS011;40161;39.768;2.722;2023-07-29T05:05:51;5.20;;;1.70;;
54247;SDS011;40161;39.768;2.722;2023-07-29T05:08:18;2.88;;;1.40;;
54247;SDS011;40161;39.768;2.722;2023-07-29T05:10:44;4.20;;;1.50;;
54247;SDS011;40161;39.768;2.722;2023-07-29T05:13:10;5.65;;;1.58;;
54247;SDS011;40161;39.768;2.722;2023-07-29T05:15:35;4.93;;;1.45;;
54247;SDS011;40161;39.768;2.722;2023-07-29T05:18:01;9.98;;;1.92;;
54247;SDS011;40161;39.768;2.722;2023-07-29T05:20:26;3.78;;;1.60;;
54247;SDS011;40161;39.768;2.722;2023-07-29T05:22:52;4.65;;;1.55;;
54247;SDS011;40161;39.768;2.722;2023-07-29T05:25:17;4.95;;;1.55;;
54247;SDS011;40161;39.768;2.722;2023-07-29T05:27:43;6.28;;;1.77;;
54247;SDS011;40161;39.768;2.722;2023-07-29T05:30:08;7.55;;;2.03;;
54247;SDS011;40161;39.768;2.722;2023-07-29T05:32:34;6.07;;;2.25;;
54247;SDS011;40161;39.768;2.722;2023-07-29T05:34:59;4.25;;;2.20;;
54247;SDS011;40161;39.768;2.722;2023-07-29T05:37:25;6.28;;;1.50;;
54247;SDS011;40161;39.768;2.722;2023-07-29T05:39:51;6.03;;;1.73;;
54247;SDS011;40161;39.768;2.722;2023-07-29T05:42:17;4.32;;;1.38;;
54247;SDS011;40161;39.768;2.722;2023-07-29T05:44:42;5.40;;;1.50;;
54247;SDS011;40161;39.768;2.722;2023-07-29T05:47:08;4.65;;;2.05;;
54247;SDS011;40161;39.768;2.722;2023-07-29T05:49:33;3.50;;;1.40;;
54247;SDS011;40161;39.768;2.722;2023-07-29T05:51:59;5.95;;;1.70;;
54247;SDS011;40161;39.768;2.722;2023-07-29T05:54:25;7.05;;;2.28;;
54247;SDS011;40161;39.768;2.722;2023-07-29T05:56:50;5.55;;;1.90;;
54247;SDS011;40161;39.768;2.722;2023-07-29T05:59:16;4.78;;;1.90;;
54247;SDS011;40161;39.768;2.722;2023-07-29T06:01:41;4.95;;;2.10;;
54247;SDS011;40161;39.768;2.722;2023-07-29T06:04:07;7.57;;;2.83;;
54247;SDS011;40161;39.768;2.722;2023-07-29T06:06:32;6.57;;;2.53;;
54247;SDS011;40161;39.768;2.722;2023-07-29T06:08:58;4.65;;;1.88;;
54247;SDS011;40161;39.768;2.722;2023-07-29T06:11:24;3.85;;;1.67;;
54247;SDS011;40161;39.768;2.722;2023-07-29T06:13:50;4.97;;;1.80;;
54247;SDS011;40161;39.768;2.722;2023-07-29T06:16:15;4.85;;;1.65;;
54247;SDS011;40161;39.768;2.722;2023-07-29T06:18:41;5.32;;;1.73;;
54247;SDS011;40161;39.768;2.722;2023-07-29T06:21:06;5.13;;;1.83;;
54247;SDS011;40161;39.768;2.722;2023-07-29T06:23:35;4.65;;;1.90;;
54247;SDS011;40161;39.768;2.722;2023-07-29T06:26:02;4.13;;;1.70;;
54247;SDS011;40161;39.768;2.722;2023-07-29T06:28:28;5.78;;;1.83;;
54247;SDS011;40161;39.768;2.722;2023-07-29T06:30:53;7.18;;;1.83;;
54247;SDS011;40161;39.768;2.722;2023-07-29T06:33:19;4.63;;;1.88;;
54247;SDS011;40161;39.768;2.722;2023-07-29T06:35:44;3.85;;;1.73;;
54247;SDS011;40161;39.768;2.722;2023-07-29T06:38:10;4.85;;;1.70;;
54247;SDS011;40161;39.768;2.722;2023-07-29T06:40:35;6.78;;;1.92;;
54247;SDS011;40161;39.768;2.722;2023-07-29T06:43:01;5.80;;;2.03;;
54247;SDS011;40161;39.768;2.722;2023-07-29T06:45:26;5.30;;;1.90;;
54247;SDS011;40161;39.768;2.722;2023-07-29T06:47:52;8.02;;;1.92;;
54247;SDS011;40161;39.768;2.722;2023-07-29T06:50:18;4.80;;;1.88;;
54247;SDS011;40161;39.768;2.722;2023-07-29T06:52:44;5.38;;;1.98;;
54247;SDS011;40161;39.768;2.722;2023-07-29T06:55:10;4.78;;;2.30;;
54247;SDS011;40161;39.768;2.722;2023-07-29T06:57:36;7.32;;;3.58;;
54247;SDS011;40161;39.768;2.722;2023-07-29T07:00:03;6.38;;;3.67;;
54247;SDS011;40161;39.768;2.722;2023-07-29T07:02:29;8.63;;;4.82;;
54247;SDS011;40161;39.768;2.722;2023-07-29T07:04:55;10.80;;;5.95;;
54247;SDS011;40161;39.768;2.722;2023-07-29T07:07:21;10.52;;;7.15;;
54247;SDS011;40161;39.768;2.722;2023-07-29T07:09:46;10.43;;;6.25;;
54247;SDS011;40161;39.768;2.722;2023-07-29T07:12:12;11.60;;;6.28;;
54247;SDS011;40161;39.768;2.722;2023-07-29T07:14:37;11.60;;;5.50;;
54247;SDS011;40161;39.768;2.722;2023-07-29T07:17:03;7.95;;;4.72;;
54247;SDS011;40161;39.768;2.722;2023-07-29T07:19:29;8.07;;;4.25;;
54247;SDS011;40161;39.768;2.722;2023-07-29T07:21:54;9.35;;;4.15;;
54247;SDS011;40161;39.768;2.722;2023-07-29T07:24:20;6.55;;;3.90;;
54247;SDS011;40161;39.768;2.722;2023-07-29T07:26:45;5.70;;;3.10;;
54247;SDS011;40161;39.768;2.722;2023-07-29T07:29:11;9.18;;;3.47;;
54247;SDS011;40161;39.768;2.722;2023-07-29T07:31:36;6.05;;;2.80;;
54247;SDS011;40161;39.768;2.722;2023-07-29T07:34:02;4.50;;;2.15;;
54247;SDS011;40161;39.768;2.722;2023-07-29T07:36:28;5.65;;;2.30;;
54247;SDS011;40161;39.768;2.722;2023-07-29T07:38:54;5.88;;;1.83;;
54247;SDS011;40161;39.768;2.722;2023-07-29T07:41:19;4.00;;;1.83;;
54247;SDS011;40161;39.768;2.722;2023-07-29T07:43:45;3.80;;;1.80;;
54247;SDS011;40161;39.768;2.722;2023-07-29T07:46:10;6.47;;;2.05;;
54247;SDS011;40161;39.768;2.722;2023-07-29T07:48:36;5.38;;;1.73;;
54247;SDS011;40161;39.768;2.722;2023-07-29T07:51:12;5.47;;;2.03;;
54247;SDS011;40161;39.768;2.722;2023-07-29T07:53:38;4.40;;;1.80;;
54247;SDS011;40161;39.768;2.722;2023-07-29T07:56:05;4.63;;;1.70;;
54247;SDS011;40161;39.768;2.722;2023-07-29T07:58:32;4.20;;;1.70;;
54247;SDS011;40161;39.768;2.722;2023-07-29T08:01:01;4.78;;;1.95;;
54247;SDS011;40161;39.768;2.722;2023-07-29T08:03:31;4.18;;;1.67;;
54247;SDS011;40161;39.768;2.722;2023-07-29T08:05:57;4.88;;;2.13;;
54247;SDS011;40161;39.768;2.722;2023-07-29T08:08:23;3.47;;;1.45;;
54247;SDS011;40161;39.768;2.722;2023-07-29T08:10:48;4.50;;;1.70;;
54247;SDS011;40161;39.768;2.722;2023-07-29T08:13:14;4.45;;;1.55;;
54247;SDS011;40161;39.768;2.722;2023-07-29T08:15:39;3.85;;;1.52;;
54247;SDS011;40161;39.768;2.722;2023-07-29T08:18:06;4.00;;;1.70;;
54247;SDS011;40161;39.768;2.722;2023-07-29T08:20:32;4.68;;;1.70;;
54247;SDS011;40161;39.768;2.722;2023-07-29T08:22:57;3.63;;;1.67;;
54247;SDS011;40161;39.768;2.722;2023-07-29T08:25:23;3.50;;;1.65;;
54247;SDS011;40161;39.768;2.722;2023-07-29T08:27:49;5.28;;;1.95;;
54247;SDS011;40161;39.768;2.722;2023-07-29T08:30:14;4.47;;;1.45;;
54247;SDS011;40161;39.768;2.722;2023-07-29T08:32:41;5.25;;;1.67;;
54247;SDS011;40161;39.768;2.722;2023-07-29T08:35:07;5.15;;;1.40;;
54247;SDS011;40161;39.768;2.722;2023-07-29T08:37:32;5.07;;;1.52;;
54247;SDS011;40161;39.768;2.722;2023-07-29T08:39:58;4.00;;;1.73;;
54247;SDS011;40161;39.768;2.722;2023-07-29T08:42:25;4.47;;;1.55;;
54247;SDS011;40161;39.768;2.722;2023-07-29T08:44:56;3.53;;;1.70;;
54247;SDS011;40161;39.768;2.722;2023-07-29T08:47:21;3.95;;;1.50;;
54247;SDS011;40161;39.768;2.722;2023-07-29T08:49:47;4.40;;;1.50;;
54247;SDS011;40161;39.768;2.722;2023-07-29T08:52:15;4.72;;;1.63;;
54247;SDS011;40161;39.768;2.722;2023-07-29T08:54:41;6.03;;;1.80;;
54247;SDS011;40161;39.768;2.722;2023-07-29T08:57:08;6.13;;;1.63;;
54247;SDS011;40161;39.768;2.722;2023-07-29T08:59:34;4.75;;;1.45;;
54247;SDS011;40161;39.768;2.722;2023-07-29T09:01:59;3.55;;;1.38;;
54247;SDS011;40161;39.768;2.722;2023-07-29T09:04:25;5.43;;;1.55;;
54247;SDS011;40161;39.768;2.722;2023-07-29T09:06:51;5.57;;;1.60;;
54247;SDS011;40161;39.768;2.722;2023-07-29T09:09:18;3.75;;;1.60;;
54247;SDS011;40161;39.768;2.722;2023-07-29T09:11:44;4.55;;;1.60;;
54247;SDS011;40161;39.768;2.722;2023-07-29T09:14:09;3.95;;;1.70;;
54247;SDS011;40161;39.768;2.722;2023-07-29T09:16:35;4.13;;;1.40;;
54247;SDS011;40161;39.768;2.722;2023-07-29T09:19:02;2.75;;;1.17;;
54247;SDS011;40161;39.768;2.722;2023-07-29T09:21:31;4.03;;;1.30;;
54247;SDS011;40161;39.768;2.722;2023-07-29T09:23:57;3.50;;;1.45;;
54247;SDS011;40161;39.768;2.722;2023-07-29T09:26:29;6.85;;;3.63;;
54247;SDS011;40161;39.768;2.722;2023-07-29T09:28:56;4.65;;;1.85;;
54247;SDS011;40161;39.768;2.722;2023-07-29T09:31:23;3.00;;;1.30;;
54247;SDS011;40161;39.768;2.722;2023-07-29T09:33:59;5.35;;;1.50;;
54247;SDS011;40161;39.768;2.722;2023-07-29T09:36:26;3.00;;;1.40;;
54247;SDS011;40161;39.768;2.722;2023-07-29T09:38:55;4.28;;;1.60;;
54247;SDS011;40161;39.768;2.722;2023-07-29T09:41:25;2.75;;;1.30;;
54247;SDS011;40161;39.768;2.722;2023-07-29T09:43:58;2.75;;;1.30;;
54247;SDS011;40161;39.768;2.722;2023-07-29T09:46:32;5.10;;;1.80;;
54247;SDS011;40161;39.768;2.722;2023-07-29T09:49:02;4.35;;;1.35;;
54247;SDS011;40161;39.768;2.722;2023-07-29T09:51:29;3.83;;;1.30;;
54247;SDS011;40161;39.768;2.722;2023-07-29T09:53:55;4.03;;;1.52;;
54247;SDS011;40161;39.768;2.722;2023-07-29T09:56:24;4.63;;;1.50;;
54247;SDS011;40161;39.768;2.722;2023-07-29T09:58:51;4.20;;;1.52;;
54247;SDS011;40161;39.768;2.722;2023-07-29T10:01:17;3.45;;;1.45;;
54247;SDS011;40161;39.768;2.722;2023-07-29T10:03:44;4.07;;;1.70;;
54247;SDS011;40161;39.768;2.722;2023-07-29T10:06:10;5.43;;;1.30;;
54247;SDS011;40161;39.768;2.722;2023-07-29T10:08:36;6.18;;;1.38;;
54247;SDS011;40161;39.768;2.722;2023-07-29T10:11:05;3.15;;;1.42;;
54247;SDS011;40161;39.768;2.722;2023-07-29T10:13:32;3.13;;;1.23;;
54247;SDS011;40161;39.768;2.722;2023-07-29T10:15:58;4.25;;;1.58;;
54247;SDS011;40161;39.768;2.722;2023-07-29T10:18:24;4.43;;;1.73;;
54247;SDS011;40161;39.768;2.722;2023-07-29T10:20:50;3.50;;;1.40;;
54247;SDS011;40161;39.768;2.722;2023-07-29T10:23:20;5.63;;;1.50;;
54247;SDS011;40161;39.768;2.722;2023-07-29T10:25:50;8.15;;;1.90;;
54247;SDS011;40161;39.768;2.722;2023-07-29T10:28:30;4.68;;;1.30;;
54247;SDS011;40161;39.768;2.722;2023-07-29T10:30:57;3.80;;;1.23;;
54247;SDS011;40161;39.768;2.722;2023-07-29T10:33:24;4.57;;;1.48;;
54247;SDS011;40161;39.768;2.722;2023-07-29T10:35:50;4.25;;;1.40;;
54247;SDS011;40161;39.768;2.722;2023-07-29T10:38:23;3.20;;;1.30;;
54247;SDS011;40161;39.768;2.722;2023-07-29T10:40:51;4.38;;;1.40;;
54247;SDS011;40161;39.768;2.722;2023-07-29T10:45:55;3.13;;;1.60;;
54247;SDS011;40161;39.768;2.722;2023-07-29T10:53:57;3.95;;;1.52;;
54247;SDS011;40161;39.768;2.722;2023-07-29T10:56:35;3.88;;;1.50;;
54247;SDS011;40161;39.768;2.722;2023-07-29T11:01:43;4.80;;;1.30;;
54247;SDS011;40161;39.768;2.722;2023-07-29T11:17:50;5.15;;;1.75;;
54247;SDS011;40161;39.768;2.722;2023-07-29T11:20:19;3.97;;;1.48;;
54247;SDS011;40161;39.768;2.722;2023-07-29T11:22:47;4.20;;;1.52;;
54247;SDS011;40161;39.768;2.722;2023-07-29T11:25:14;4.82;;;1.30;;
54247;SDS011;40161;39.768;2.722;2023-07-29T11:27:41;4.03;;;1.48;;
54247;SDS011;40161;39.768;2.722;2023-07-29T11:30:08;3.85;;;1.40;;
54247;SDS011;40161;39.768;2.722;2023-07-29T11:32:39;4.70;;;1.80;;
54247;SDS011;40161;39.768;2.722;2023-07-29T11:35:07;3.72;;;1.45;;
54247;SDS011;40161;39.768;2.722;2023-07-29T11:37:35;4.72;;;1.50;;
54247;SDS011;40161;39.768;2.722;2023-07-29T11:40:01;4.38;;;1.48;;
54247;SDS011;40161;39.768;2.722;2023-07-29T11:42:28;3.65;;;1.45;;
54247;SDS011;40161;39.768;2.722;2023-07-29T11:44:57;5.05;;;2.00;;
54247;SDS011;40161;39.768;2.722;2023-07-29T11:47:23;4.55;;;1.80;;
54247;SDS011;40161;39.768;2.722;2023-07-29T11:49:49;4.50;;;1.60;;
54247;SDS011;40161;39.768;2.722;2023-07-29T11:52:16;5.10;;;1.83;;
54247;SDS011;40161;39.768;2.722;2023-07-29T11:54:44;3.28;;;1.40;;
54247;SDS011;40161;39.768;2.722;2023-07-29T11:57:11;5.53;;;1.50;;
54247;SDS011;40161;39.768;2.722;2023-07-29T11:59:39;4.55;;;1.50;;
54247;SDS011;40161;39.768;2.722;2023-07-29T12:02:11;4.57;;;1.60;;
54247;SDS011;40161;39.768;2.722;2023-07-29T12:04:40;3.45;;;1.30;;
54247;SDS011;40161;39.768;2.722;2023-07-29T12:07:07;3.53;;;1.40;;
54247;SDS011;40161;39.768;2.722;2023-07-29T12:09:33;4.75;;;1.40;;
54247;SDS011;40161;39.768;2.722;2023-07-29T12:12:05;3.67;;;1.25;;
54247;SDS011;40161;39.768;2.722;2023-07-29T12:14:32;7.72;;;1.50;;
54247;SDS011;40161;39.768;2.722;2023-07-29T12:17:01;5.75;;;1.33;;
54247;SDS011;40161;39.768;2.722;2023-07-29T12:19:35;5.15;;;1.40;;
54247;SDS011;40161;39.768;2.722;2023-07-29T12:22:02;5.93;;;1.60;;
54247;SDS011;40161;39.768;2.722;2023-07-29T12:24:29;7.07;;;1.40;;
54247;SDS011;40161;39.768;2.722;2023-07-29T12:26:56;4.40;;;1.60;;
54247;SDS011;40161;39.768;2.722;2023-07-29T12:29:22;4.97;;;1.35;;
54247;SDS011;40161;39.768;2.722;2023-07-29T12:31:48;3.08;;;1.42;;
54247;SDS011;40161;39.768;2.722;2023-07-29T12:34:18;4.32;;;1.45;;
54247;SDS011;40161;39.768;2.722;2023-07-29T12:36:45;4.13;;;1.30;;
54247;SDS011;40161;39.768;2.722;2023-07-29T12:39:23;3.45;;;1.33;;
54247;SDS011;40161;39.768;2.722;2023-07-29T12:41:51;3.10;;;1.20;;
54247;SDS011;40161;39.768;2.722;2023-07-29T12:44:18;5.70;;;1.63;;
54247;SDS011;40161;39.768;2.722;2023-07-29T12:46:43;4.60;;;1.38;;
54247;SDS011;40161;39.768;2.722;2023-07-29T12:49:09;4.78;;;1.38;;
54247;SDS011;40161;39.768;2.722;2023-07-29T12:51:35;6.60;;;1.45;;
54247;SDS011;40161;39.768;2.722;2023-07-29T12:54:02;3.80;;;1.27;;
54247;SDS011;40161;39.768;2.722;2023-07-29T12:56:29;6.40;;;1.50;;
54247;SDS011;40161;39.768;2.722;2023-07-29T12:58:58;5.88;;;1.50;;
54247;SDS011;40161;39.768;2.722;2023-07-29T13:01:25;4.47;;;1.40;;
54247;SDS011;40161;39.768;2.722;2023-07-29T13:03:50;6.13;;;1.65;;
54247;SDS011;40161;39.768;2.722;2023-07-29T13:06:16;4.07;;;1.35;;
54247;SDS011;40161;39.768;2.722;2023-07-29T13:08:42;4.80;;;1.50;;
54247;SDS011;40161;39.768;2.722;2023-07-29T13:11:08;5.40;;;1.52;;
54247;SDS011;40161;39.768;2.722;2023-07-29T13:13:33;5.68;;;1.80;;
54247;SDS011;40161;39.768;2.722;2023-07-29T13:15:59;3.47;;;1.10;;
54247;SDS011;40161;39.768;2.722;2023-07-29T13:18:25;2.95;;;1.15;;
54247;SDS011;40161;39.768;2.722;2023-07-29T13:20:50;3.63;;;1.30;;
54247;SDS011;40161;39.768;2.722;2023-07-29T13:23:16;4.38;;;1.60;;
54247;SDS011;40161;39.768;2.722;2023-07-29T13:25:41;5.43;;;1.50;;
54247;SDS011;40161;39.768;2.722;2023-07-29T13:28:08;4.80;;;1.30;;
54247;SDS011;40161;39.768;2.722;2023-07-29T13:30:35;4.00;;;1.40;;
54247;SDS011;40161;39.768;2.722;2023-07-29T13:33:02;4.68;;;1.30;;
54247;SDS011;40161;39.768;2.722;2023-07-29T13:35:28;6.25;;;1.40;;
54247;SDS011;40161;39.768;2.722;2023-07-29T13:37:54;6.68;;;1.98;;
54247;SDS011;40161;39.768;2.722;2023-07-29T13:40:20;5.20;;;1.40;;
54247;SDS011;40161;39.768;2.722;2023-07-29T13:42:45;3.92;;;1.40;;
54247;SDS011;40161;39.768;2.722;2023-07-29T13:45:11;4.82;;;1.55;;
54247;SDS011;40161;39.768;2.722;2023-07-29T13:47:36;7.00;;;1.60;;
54247;SDS011;40161;39.768;2.722;2023-07-29T13:50:02;5.47;;;2.10;;
54247;SDS011;40161;39.768;2.722;2023-07-29T13:52:28;6.22;;;1.60;;
54247;SDS011;40161;39.768;2.722;2023-07-29T13:54:54;4.90;;;1.60;;
54247;SDS011;40161;39.768;2.722;2023-07-29T13:57:19;5.05;;;1.40;;
54247;SDS011;40161;39.768;2.722;2023-07-29T13:59:45;6.75;;;1.60;;
54247;SDS011;40161;39.768;2.722;2023-07-29T14:02:11;4.35;;;1.50;;
54247;SDS011;40161;39.768;2.722;2023-07-29T14:04:36;6.85;;;1.40;;
54247;SDS011;40161;39.768;2.722;2023-07-29T14:07:02;4.07;;;1.67;;
54247;SDS011;40161;39.768;2.722;2023-07-29T14:09:27;4.63;;;1.73;;
54247;SDS011;40161;39.768;2.722;2023-07-29T14:11:54;5.18;;;1.40;;
54247;SDS011;40161;39.768;2.722;2023-07-29T14:14:20;4.15;;;1.70;;
54247;SDS011;40161;39.768;2.722;2023-07-29T14:16:54;5.45;;;1.58;;
54247;SDS011;40161;39.768;2.722;2023-07-29T14:19:20;5.38;;;1.30;;
54247;SDS011;40161;39.768;2.722;2023-07-29T14:21:46;4.60;;;1.23;;
54247;SDS011;40161;39.768;2.722;2023-07-29T14:24:12;4.47;;;1.38;;
54247;SDS011;40161;39.768;2.722;2023-07-29T14:26:37;3.85;;;1.40;;
54247;SDS011;40161;39.768;2.722;2023-07-29T14:29:03;4.10;;;1.40;;
54247;SDS011;40161;39.768;2.722;2023-07-29T14:31:29;5.43;;;1.40;;
54247;SDS011;40161;39.768;2.722;2023-07-29T14:33:55;4.25;;;1.30;;
54247;SDS011;40161;39.768;2.722;2023-07-29T14:36:20;3.13;;;1.20;;
54247;SDS011;40161;39.768;2.722;2023-07-29T14:38:46;5.78;;;1.40;;
54247;SDS011;40161;39.768;2.722;2023-07-29T14:41:12;5.35;;;1.40;;
54247;SDS011;40161;39.768;2.722;2023-07-29T14:43:38;5.68;;;1.30;;
54247;SDS011;40161;39.768;2.722;2023-07-29T14:46:03;3.38;;;1.10;;
54247;SDS011;40161;39.768;2.722;2023-07-29T14:48:30;3.60;;;1.20;;
54247;SDS011;40161;39.768;2.722;2023-07-29T14:50:56;5.43;;;1.50;;
54247;SDS011;40161;39.768;2.722;2023-07-29T14:53:21;3.90;;;1.30;;
54247;SDS011;40161;39.768;2.722;2023-07-29T14:55:46;3.67;;;1.40;;
54247;SDS011;40161;39.768;2.722;2023-07-29T14:58:12;4.55;;;1.17;;
54247;SDS011;40161;39.768;2.722;2023-07-29T15:00:37;3.67;;;1.35;;
54247;SDS011;40161;39.768;2.722;2023-07-29T15:03:03;6.38;;;1.60;;
54247;SDS011;40161;39.768;2.722;2023-07-29T15:05:29;5.50;;;1.52;;
54247;SDS011;40161;39.768;2.722;2023-07-29T15:07:54;3.80;;;1.38;;
54247;SDS011;40161;39.768;2.722;2023-07-29T15:10:20;3.50;;;1.30;;
54247;SDS011;40161;39.768;2.722;2023-07-29T15:12:46;5.45;;;1.55;;
54247;SDS011;40161;39.768;2.722;2023-07-29T15:15:12;5.95;;;1.40;;